TAF KALO
KALO 270529Z 2706/2806 16006KT P6SM BKN120 FM271200 20005KT P6SM BKN090 FM271500 27008KT P6SM SCT150 FM271700 30015G23KT P6SM FEW150 FM280000 32014KT P6SM FEW020=
METAR KALO
WC KALO
WS KALO
WV KALO